Terminal Aerodrome Forecast
Issued by NWS Omaha/Valley, NE

Home | Current Version | Previous Version | Text Only | Print | Product List | Glossary On
Versions: 1 2 3 4 5 6 7 8 9 10 11 12 13 14 15 16 17 18 19 20 21 22 23 24 25 26 27 28 29 30 31 32 33 34 35 36
000
FTUS43 KOAX 281722
TAFLNK
TAF
KLNK 281722Z 2818/2918 16014KT P6SM VCSH SCT040 BKN100
      TEMPO 2818/2822 P6SM -SHRA BKN040 OVC100
     FM282300 17007KT P6SM SCT040 BKN100
      TEMPO 2906/2909 P6SM -SHRA OVC100
     FM291200 10005KT P6SM VCTS SCT040CB BKN100
      TEMPO 2912/2914 5SM -TSRA OVC040CB
     FM291500 16006KT P6SM VCSH BKN050 OVC250=

USA.gov is the U.S. government's official web portal to all federal, state and local government web resources and services.